createdAt,value
2022-11-17T00:01:24.019Z,99099.16
2022-11-17T00:03:50.954Z,99086.81
2022-11-17T00:06:20.250Z,99076.28
2022-11-17T00:08:47.313Z,99079.56
2022-11-17T00:11:13.954Z,99069.03
2022-11-17T00:13:58.925Z,99063.78
2022-11-17T00:16:25.254Z,99057.50
2022-11-17T00:19:10.230Z,99043.38
2022-11-17T00:21:36.661Z,99033.94
2022-11-17T00:24:03.170Z,99018.34
2022-11-17T00:26:34.473Z,99012.75
2022-11-17T00:29:04.412Z,99008.13
2022-11-17T00:31:51.795Z,99004.50
2022-11-17T00:34:23.313Z,99000.84
2022-11-17T00:36:54.263Z,99002.50
2022-11-17T00:39:22.057Z,98994.59
2022-11-17T00:41:48.760Z,98982.25
2022-11-17T00:44:15.617Z,98980.63
2022-11-17T00:46:43.248Z,98962.38
2022-11-17T00:49:11.102Z,98951.50
2022-11-17T00:51:38.182Z,98947.88
2022-11-17T00:54:05.845Z,98938.34
2022-11-17T00:56:32.667Z,98932.09
2022-11-17T00:58:59.309Z,98933.09
2022-11-17T01:01:25.763Z,98916.44
2022-11-17T01:04:02.596Z,98917.09
2022-11-17T01:06:44.180Z,98907.41
2022-11-17T01:09:16.378Z,98900.50
2022-11-17T01:11:43.769Z,98896.88
2022-11-17T01:14:13.977Z,98882.69
2022-11-17T01:16:40.330Z,98867.53
2022-11-17T01:19:07.040Z,98859.66
2022-11-17T01:21:33.498Z,98859.66
2022-11-17T01:24:01.558Z,98849.13
2022-11-17T01:26:34.124Z,98838.59
2022-11-17T01:29:01.914Z,98854.38
2022-11-17T01:31:34.615Z,98848.09
2022-11-17T01:34:01.494Z,98841.88
2022-11-17T01:36:51.544Z,98864.56
2022-11-17T01:39:17.989Z,98849.59
2022-11-17T01:41:44.313Z,98855.66
2022-11-17T01:44:41.841Z,98843.13
2022-11-17T01:47:17.358Z,98814.00
2022-11-17T01:49:44.700Z,98823.38
2022-11-17T01:52:12.301Z,98818.38
2022-11-17T01:54:41.645Z,98824.28
2022-11-17T01:57:19.192Z,98812.56
2022-11-17T02:00:07.949Z,98809.59
2022-11-17T02:02:35.668Z,98790.97
2022-11-17T02:05:10.037Z,98790.97
2022-11-17T02:07:39.270Z,98789.97
2022-11-17T02:10:06.304Z,98800.97
2022-11-17T02:12:35.373Z,98794.50
2022-11-17T02:15:03.328Z,98792.97
2022-11-17T02:17:37.412Z,98802.50
2022-11-17T02:20:13.514Z,98788.50
2022-11-17T02:22:55.420Z,98791.16
2022-11-17T02:25:46.016Z,98785.25
2022-11-17T02:28:20.436Z,98767.44
2022-11-17T02:30:52.634Z,98773.72
2022-11-17T02:33:30.005Z,98771.91
2022-11-17T02:36:04.661Z,98767.44
2022-11-17T02:39:01.594Z,98761.34
2022-11-17T02:41:38.165Z,98760.53
2022-11-17T02:44:18.973Z,98781.25
2022-11-17T02:46:55.102Z,98769.06
2022-11-17T02:49:27.199Z,98753.28
2022-11-17T02:51:56.900Z,98762.63
2022-11-17T02:54:26.719Z,98770.34
2022-11-17T02:56:53.152Z,98756.19
2022-11-17T02:59:25.441Z,98750.09
2022-11-17T03:02:18.158Z,98751.09
2022-11-17T03:04:50.719Z,98742.38
2022-11-17T03:07:45.810Z,98742.53
2022-11-17T03:10:19.546Z,98731.84
2022-11-17T03:13:21.192Z,98741.19
2022-11-17T03:15:55.201Z,98731.13
2022-11-17T03:18:35.081Z,98731.13
2022-11-17T03:21:11.197Z,98725.00
2022-11-17T03:23:46.703Z,98721.56
2022-11-17T03:26:16.969Z,98711.41
2022-11-17T03:28:46.385Z,98706.41
2022-11-17T03:31:15.281Z,98700.47
2022-11-17T03:33:45.420Z,98689.94
2022-11-17T03:36:15.791Z,98689.59
2022-11-17T03:38:50.163Z,98688.84
2022-11-17T03:41:18.300Z,98696.75
2022-11-17T03:43:49.465Z,98693.84
2022-11-17T03:46:19.974Z,98695.47
2022-11-17T03:49:11.631Z,98678.31
2022-11-17T03:51:38.276Z,98671.66
2022-11-17T03:54:05.443Z,98687.47
2022-11-17T03:56:57.492Z,98671.66
2022-11-17T03:59:26.540Z,98672.47
2022-11-17T04:01:53.586Z,98666.03
2022-11-17T04:04:21.782Z,98676.56
2022-11-17T04:06:52.090Z,98675.75
2022-11-17T04:09:23.973Z,98680.19
2022-11-17T04:12:09.535Z,98682.03
2022-11-17T04:14:54.338Z,98674.94
2022-11-17T04:17:20.744Z,98663.50
2022-11-17T04:19:48.157Z,98671.66
2022-11-17T04:22:14.485Z,98666.75
2022-11-17T04:24:40.784Z,98662.31
2022-11-17T04:27:25.921Z,98668.66
2022-11-17T04:29:52.290Z,98655.47
2022-11-17T04:32:18.602Z,98646.69
2022-11-17T04:34:44.913Z,98637.16
2022-11-17T04:37:17.190Z,98637.16
2022-11-17T04:39:45.369Z,98629.41
2022-11-17T04:42:11.938Z,98626.72
2022-11-17T04:44:38.257Z,98627.72
2022-11-17T04:47:06.003Z,98613.53
2022-11-17T04:49:32.992Z,98613.53
2022-11-17T04:51:59.384Z,98606.28
2022-11-17T04:54:25.760Z,98601.03
2022-11-17T04:56:53.255Z,98613.53
2022-11-17T04:59:19.797Z,98594.34
2022-11-17T05:01:46.660Z,98592.47
2022-11-17T05:04:35.714Z,98586.03
2022-11-17T05:07:02.412Z,98591.28
2022-11-17T05:09:28.745Z,98588.06
2022-11-17T05:12:13.769Z,98589.53
2022-11-17T05:14:40.184Z,98577.44
2022-11-17T05:17:10.019Z,98578.88
2022-11-17T05:19:44.257Z,98591.03
2022-11-17T05:22:35.073Z,98584.59
2022-11-17T05:25:02.020Z,98587.84
2022-11-17T05:27:28.394Z,98592.50
2022-11-17T05:29:54.814Z,98584.59
2022-11-17T05:32:21.310Z,98588.84
2022-11-17T05:34:47.903Z,98569.41
2022-11-17T05:37:14.242Z,98576.03
2022-11-17T05:39:40.577Z,98586.97
2022-11-17T05:42:06.967Z,98567.06
2022-11-17T05:44:33.386Z,98561.38
2022-11-17T05:46:59.712Z,98561.72
2022-11-17T05:49:26.097Z,98548.94
2022-11-17T05:51:53.158Z,98549.16
2022-11-17T05:54:19.964Z,98549.16
2022-11-17T05:56:52.592Z,98551.97
2022-11-17T05:59:45.698Z,98561.66
2022-11-17T06:02:28.995Z,98555.59
2022-11-17T06:04:55.438Z,98559.22
2022-11-17T06:07:22.042Z,98557.59
2022-11-17T06:09:48.873Z,98543.41
2022-11-17T06:12:15.495Z,98533.91
2022-11-17T06:14:42.307Z,98543.41
2022-11-17T06:17:21.811Z,98560.84
2022-11-17T06:20:02.897Z,98551.97
2022-11-17T06:22:30.291Z,98551.13
2022-11-17T06:24:58.311Z,98558.88
2022-11-17T06:27:25.597Z,98570.66
2022-11-17T06:29:52.675Z,98565.84
2022-11-17T06:32:19.697Z,98563.38
2022-11-17T06:34:54.865Z,98560.97
2022-11-17T06:37:22.894Z,98569.09
2022-11-17T06:39:49.265Z,98569.09
2022-11-17T06:42:15.552Z,98573.19
2022-11-17T06:44:42.162Z,98579.44
2022-11-17T06:47:08.463Z,98585.50
2022-11-17T06:49:34.758Z,98592.59
2022-11-17T06:52:01.087Z,98581.25
2022-11-17T06:54:27.484Z,98591.78
2022-11-17T06:56:55.302Z,98592.59
2022-11-17T06:59:21.688Z,98600.50
2022-11-17T07:01:48.189Z,98596.91
2022-11-17T07:04:14.613Z,98592.59
2022-11-17T07:06:41.044Z,98603.13
2022-11-17T07:09:07.621Z,98610.06
2022-11-17T07:11:36.162Z,98606.59
2022-11-17T07:14:02.815Z,98603.34
2022-11-17T07:16:30.681Z,98605.97
2022-11-17T07:18:59.277Z,98612.88
2022-11-17T07:21:25.742Z,98617.31
2022-11-17T07:23:52.224Z,98624.59
2022-11-17T07:26:19.280Z,98626.22
2022-11-17T07:28:45.721Z,98622.59
2022-11-17T07:31:12.166Z,98621.97
2022-11-17T07:33:38.567Z,98629.06
2022-11-17T07:36:06.948Z,98629.63
2022-11-17T07:38:35.279Z,98635.28
2022-11-17T07:41:03.259Z,98628.38
2022-11-17T07:43:30.158Z,98629.34
2022-11-17T07:45:56.654Z,98629.34
2022-11-17T07:48:23.048Z,98633.81
2022-11-17T07:50:49.554Z,98645.16
2022-11-17T07:53:15.986Z,98642.72
2022-11-17T07:55:42.352Z,98648.38
2022-11-17T07:58:08.734Z,98654.81
2022-11-17T08:00:35.230Z,98656.19
2022-11-17T08:03:04.033Z,98669.72
2022-11-17T08:05:32.219Z,98670.09
2022-11-17T08:08:00.173Z,98670.81
2022-11-17T08:10:28.161Z,98666.91
2022-11-17T08:12:54.715Z,98669.13
2022-11-17T08:15:22.107Z,98670.28
2022-11-17T08:17:53.351Z,98672.28
2022-11-17T08:20:19.967Z,98674.28
2022-11-17T08:22:46.944Z,98681.19
2022-11-17T08:25:14.059Z,98685.63
2022-11-17T08:27:41.440Z,98682.19
2022-11-17T08:30:09.480Z,98688.28
2022-11-17T08:32:36.669Z,98686.47
2022-11-17T08:35:05.742Z,98687.28
2022-11-17T08:37:32.312Z,98686.47
2022-11-17T08:39:58.681Z,98693.72
2022-11-17T08:42:25.065Z,98695.72
2022-11-17T08:44:51.460Z,98687.19
2022-11-17T08:47:17.807Z,98695.06
2022-11-17T08:49:44.208Z,98699.72
2022-11-17T08:52:10.557Z,98699.72
2022-11-17T08:54:37.038Z,98693.63
2022-11-17T08:57:03.583Z,98698.72
2022-11-17T08:59:30.006Z,98702.34
2022-11-17T09:01:56.464Z,98706.97
2022-11-17T09:04:22.837Z,98702.88
2022-11-17T09:06:49.179Z,98704.50
2022-11-17T09:09:15.588Z,98711.22
2022-11-17T09:11:42.110Z,98698.63
2022-11-17T09:14:08.663Z,98701.81
2022-11-17T09:16:36.096Z,98712.22
2022-11-17T09:19:02.749Z,98718.31
2022-11-17T09:21:31.250Z,98727.38
2022-11-17T09:23:57.595Z,98718.84
2022-11-17T09:26:23.998Z,98730.38
2022-11-17T09:28:50.461Z,98734.38
2022-11-17T09:31:19.665Z,98735.38
2022-11-17T09:33:46.618Z,98725.50
2022-11-17T09:36:14.703Z,98734.03
2022-11-17T09:38:41.249Z,98740.03
2022-11-17T09:41:31.540Z,98737.91
2022-11-17T09:44:46.243Z,98750.91
2022-11-17T09:47:29.473Z,98756.44
2022-11-17T09:49:59.363Z,98753.81
2022-11-17T09:52:26.060Z,98769.31
2022-11-17T09:54:56.878Z,98770.34
2022-11-17T09:57:28.860Z,98770.34
2022-11-17T10:00:12.600Z,98773.88
2022-11-17T10:02:39.427Z,98767.97
2022-11-17T10:05:06.777Z,98782.16
2022-11-17T10:07:34.653Z,98778.22
2022-11-17T10:10:03.417Z,98788.13
2022-11-17T10:12:47.564Z,98785.59
2022-11-17T10:15:29.401Z,98781.47
2022-11-17T10:17:55.771Z,98793.19
2022-11-17T10:20:22.197Z,98794.84
2022-11-17T10:22:50.577Z,98790.75
2022-11-17T10:25:36.623Z,98805.38
2022-11-17T10:28:03.827Z,98803.34
2022-11-17T10:30:30.142Z,98794.50
2022-11-17T10:32:58.589Z,98797.28
2022-11-17T10:35:27.973Z,98803.34
2022-11-17T10:38:17.893Z,98819.53
2022-11-17T10:40:47.414Z,98804.91
2022-11-17T10:43:13.833Z,98809.38
2022-11-17T10:45:51.224Z,98812.16
2022-11-17T10:48:36.219Z,98809.72
2022-11-17T10:51:04.521Z,98817.91
2022-11-17T10:53:32.874Z,98813.06
2022-11-17T10:56:07.083Z,98804.31
2022-11-17T10:58:55.227Z,98797.56
2022-11-17T11:01:36.347Z,98824.00
2022-11-17T11:04:04.421Z,98810.69
2022-11-17T11:06:33.331Z,98803.31
2022-11-17T11:09:10.463Z,98813.94
2022-11-17T11:11:56.265Z,98810.69
2022-11-17T11:14:36.671Z,98813.84
2022-11-17T11:17:11.416Z,98828.84
2022-11-17T11:19:37.799Z,98838.56
2022-11-17T11:22:26.227Z,98834.09
2022-11-17T11:25:04.649Z,98835.72
2022-11-17T11:27:37.092Z,98838.38
2022-11-17T11:30:11.791Z,98841.38
2022-11-17T11:33:01.851Z,98843.72
2022-11-17T11:35:56.955Z,98853.59
2022-11-17T11:38:36.698Z,98855.25
2022-11-17T11:41:28.056Z,98866.41
2022-11-17T11:44:17.351Z,98868.53
2022-11-17T11:46:52.223Z,98857.19
2022-11-17T11:49:24.523Z,98866.84
2022-11-17T11:51:51.976Z,98878.41
2022-11-17T11:54:44.900Z,98881.28
2022-11-17T11:57:16.835Z,98871.91
2022-11-17T11:59:52.285Z,98871.56
2022-11-17T12:02:44.057Z,98867.50
2022-11-17T12:05:25.296Z,98869.47
2022-11-17T12:08:31.856Z,98879.56
2022-11-17T12:11:32.370Z,98876.44
2022-11-17T12:14:01.985Z,98879.06
2022-11-17T12:16:36.063Z,98887.97
2022-11-17T12:19:22.903Z,98878.88
2022-11-17T12:21:55.343Z,98871.81
2022-11-17T12:24:33.424Z,98877.91
2022-11-17T12:27:34.872Z,98884.97
2022-11-17T12:30:02.747Z,98888.44
2022-11-17T12:32:44.392Z,98884.00
2022-11-17T12:35:31.544Z,98890.91
2022-11-17T12:38:16.389Z,98893.72
2022-11-17T12:40:46.865Z,98891.06
2022-11-17T12:43:23.399Z,98892.53
2022-11-17T12:45:55.866Z,98899.78
2022-11-17T12:48:34.820Z,98888.25
2022-11-17T12:51:31.140Z,98894.53
2022-11-17T12:54:22.263Z,98905.88
2022-11-17T12:57:00.838Z,98903.06
2022-11-17T13:00:01.203Z,98900.25
2022-11-17T13:02:45.780Z,98916.03
2022-11-17T13:05:21.215Z,98918.84
2022-11-17T13:07:47.725Z,98915.59
2022-11-17T13:10:43.351Z,98922.00
2022-11-17T13:13:10.627Z,98930.09
2022-11-17T13:15:37.912Z,98938.81
2022-11-17T13:18:11.025Z,98933.34
2022-11-17T13:20:38.899Z,98936.00
2022-11-17T13:23:14.393Z,98936.66
2022-11-17T13:25:40.855Z,98941.91
2022-11-17T13:28:25.485Z,98947.19
2022-11-17T13:30:51.888Z,98949.16
2022-11-17T13:33:22.765Z,98950.97
2022-11-17T13:35:51.199Z,98951.16
2022-11-17T13:38:17.493Z,98954.16
2022-11-17T13:40:45.283Z,98949.84
2022-11-17T13:43:16.986Z,98948.22
2022-11-17T13:45:45.651Z,98952.66
2022-11-17T13:48:33.751Z,98953.47
2022-11-17T13:51:28.247Z,98955.13
2022-11-17T13:54:13.345Z,98948.88
2022-11-17T13:56:51.398Z,98958.56
2022-11-17T13:59:32.889Z,98970.28
2022-11-17T14:02:31.617Z,98968.63
2022-11-17T14:05:24.166Z,98971.28
2022-11-17T14:07:52.876Z,98972.91
2022-11-17T14:10:25.322Z,98977.16
2022-11-17T14:13:08.431Z,98971.72
2022-11-17T14:15:42.184Z,98979.47
2022-11-17T14:18:27.844Z,98980.75
2022-11-17T14:21:13.574Z,98982.03
2022-11-17T14:23:41.270Z,98982.03
2022-11-17T14:26:18.227Z,98981.84
2022-11-17T14:28:45.424Z,98984.31
2022-11-17T14:31:13.468Z,98979.72
2022-11-17T14:33:40.388Z,98983.63
2022-11-17T14:36:13.097Z,98994.16
2022-11-17T14:38:39.685Z,98991.38
2022-11-17T14:41:06.340Z,98989.53
2022-11-17T14:43:32.795Z,98993.63
2022-11-17T14:45:59.176Z,98991.81
2022-11-17T14:48:26.431Z,98999.72
2022-11-17T14:50:57.371Z,99002.34
2022-11-17T14:53:25.036Z,99011.06
2022-11-17T14:55:51.735Z,99005.16
2022-11-17T14:58:18.461Z,99010.25
2022-11-17T15:00:44.846Z,99013.50
2022-11-17T15:03:11.263Z,99011.88
2022-11-17T15:05:45.419Z,99022.41
2022-11-17T15:08:12.244Z,99025.72
2022-11-17T15:10:43.237Z,99018.44
2022-11-17T15:13:09.663Z,99029.44
2022-11-17T15:15:36.000Z,99038.81
2022-11-17T15:18:02.420Z,99036.00
2022-11-17T15:20:29.790Z,99035.19
2022-11-17T15:23:01.839Z,99045.72
2022-11-17T15:25:29.665Z,99044.41
2022-11-17T15:27:56.645Z,99039.84
2022-11-17T15:30:23.170Z,99041.16
2022-11-17T15:32:49.576Z,99050.06
2022-11-17T15:35:16.114Z,99050.88
2022-11-17T15:37:42.566Z,99051.31
2022-11-17T15:40:09.588Z,99060.34
2022-11-17T15:42:35.922Z,99062.84
2022-11-17T15:45:02.280Z,99056.25
2022-11-17T15:47:28.592Z,99062.84
2022-11-17T15:49:58.339Z,99058.84
2022-11-17T15:52:41.595Z,99063.16
2022-11-17T15:55:11.532Z,99062.97
2022-11-17T15:57:37.898Z,99071.56
2022-11-17T16:00:06.706Z,99058.72
2022-11-17T16:02:33.086Z,99077.16
2022-11-17T16:04:59.407Z,99076.34
2022-11-17T16:07:25.834Z,99073.56
2022-11-17T16:09:52.730Z,99077.66
2022-11-17T16:12:19.093Z,99083.28
2022-11-17T16:14:45.535Z,99083.13
2022-11-17T16:17:11.924Z,99081.59
2022-11-17T16:19:38.253Z,99084.94
2022-11-17T16:22:04.567Z,99103.66
2022-11-17T16:24:30.903Z,99096.22
2022-11-17T16:26:57.361Z,99093.47
2022-11-17T16:29:24.730Z,99089.88
2022-11-17T16:31:51.091Z,99101.09
2022-11-17T16:34:18.791Z,99102.72
2022-11-17T16:36:45.255Z,99111.56
2022-11-17T16:39:17.043Z,99111.25
2022-11-17T16:41:45.595Z,99107.19
2022-11-17T16:44:15.489Z,99116.59
2022-11-17T16:46:44.546Z,99115.91
2022-11-17T16:49:13.399Z,99121.47
2022-11-17T16:51:40.304Z,99134.91
2022-11-17T16:54:12.055Z,99130.47
2022-11-17T16:56:38.388Z,99126.69
2022-11-17T16:59:04.744Z,99123.09
2022-11-17T17:01:36.082Z,99123.09
2022-11-17T17:04:06.274Z,99134.59
2022-11-17T17:06:33.595Z,99133.09
2022-11-17T17:09:02.996Z,99131.56
2022-11-17T17:11:31.694Z,99134.47
2022-11-17T17:14:00.285Z,99137.41
2022-11-17T17:16:26.981Z,99141.50
2022-11-17T17:18:59.455Z,99147.97
2022-11-17T17:21:26.938Z,99148.78
2022-11-17T17:23:53.521Z,99152.41
2022-11-17T17:26:22.411Z,99162.47
2022-11-17T17:28:51.244Z,99170.44
2022-11-17T17:31:21.714Z,99165.09
2022-11-17T17:33:50.276Z,99176.63
2022-11-17T17:36:19.719Z,99179.13
2022-11-17T17:38:51.661Z,99175.63
2022-11-17T17:41:22.448Z,99179.59
2022-11-17T17:43:54.908Z,99188.53
2022-11-17T17:46:21.247Z,99193.44
2022-11-17T17:48:47.562Z,99196.13
2022-11-17T17:51:16.495Z,99195.81
2022-11-17T17:53:43.135Z,99208.00
2022-11-17T17:56:12.732Z,99212.44
2022-11-17T17:58:40.585Z,99211.16
2022-11-17T18:01:14.329Z,99220.69
2022-11-17T18:03:43.266Z,99215.56
2022-11-17T18:06:09.837Z,99223.44
2022-11-17T18:08:36.892Z,99227.38
2022-11-17T18:11:06.134Z,99229.69
2022-11-17T18:13:34.449Z,99232.16
2022-11-17T18:16:09.373Z,99237.59
2022-11-17T18:18:37.008Z,99243.50
2022-11-17T18:21:11.494Z,99242.50
2022-11-17T18:23:38.342Z,99229.53
2022-11-17T18:26:12.603Z,99229.34
2022-11-17T18:28:39.525Z,99231.34
2022-11-17T18:31:07.518Z,99228.06
2022-11-17T18:33:34.466Z,99236.25
2022-11-17T18:36:09.235Z,99238.09
2022-11-17T18:38:36.659Z,99247.50
2022-11-17T18:41:11.163Z,99252.63
2022-11-17T18:43:38.183Z,99253.78
2022-11-17T18:46:14.090Z,99251.19
2022-11-17T18:48:42.720Z,99263.34
2022-11-17T18:51:20.599Z,99264.16
2022-11-17T18:53:49.318Z,99266.69
2022-11-17T18:56:17.979Z,99272.63
2022-11-17T18:58:44.530Z,99272.66
2022-11-17T19:01:14.619Z,99275.94
2022-11-17T19:03:42.778Z,99274.94
2022-11-17T19:06:10.460Z,99287.78
2022-11-17T19:08:37.677Z,99287.78
2022-11-17T19:11:06.612Z,99291.41
2022-11-17T19:13:35.170Z,99286.81
2022-11-17T19:16:06.278Z,99295.19
2022-11-17T19:18:33.310Z,99292.22
2022-11-17T19:21:11.498Z,99310.50
2022-11-17T19:23:39.983Z,99308.53
2022-11-17T19:26:15.451Z,99309.84
2022-11-17T19:28:42.564Z,99321.53
2022-11-17T19:31:11.530Z,99323.50
2022-11-17T19:33:39.506Z,99324.66
2022-11-17T19:36:10.233Z,99330.28
2022-11-17T19:38:38.644Z,99333.03
2022-11-17T19:41:07.816Z,99327.94
2022-11-17T19:43:36.957Z,99336.81
2022-11-17T19:46:09.332Z,99339.13
2022-11-17T19:48:35.754Z,99333.38
2022-11-17T19:51:12.889Z,99335.84
2022-11-17T19:53:39.826Z,99340.13
2022-11-17T19:56:06.468Z,99350.66
2022-11-17T19:58:32.834Z,99350.66
2022-11-17T20:01:06.815Z,99355.25
2022-11-17T20:03:34.378Z,99368.06
2022-11-17T20:06:01.385Z,99369.06
2022-11-17T20:08:31.347Z,99377.94
2022-11-17T20:11:07.121Z,99377.31
2022-11-17T20:13:34.374Z,99377.44
2022-11-17T20:16:02.409Z,99386.31
2022-11-17T20:18:29.921Z,99386.50
2022-11-17T20:20:56.536Z,99395.88
2022-11-17T20:23:23.188Z,99397.31
2022-11-17T20:25:49.707Z,99398.00
2022-11-17T20:28:16.143Z,99407.19
2022-11-17T20:30:43.126Z,99408.00
2022-11-17T20:33:09.474Z,99413.78
2022-11-17T20:35:37.105Z,99415.56
2022-11-17T20:38:04.156Z,99427.44
2022-11-17T20:40:31.940Z,99433.50
2022-11-17T20:42:58.372Z,99427.91
2022-11-17T20:45:24.888Z,99436.78
2022-11-17T20:47:51.256Z,99436.13
2022-11-17T20:50:17.664Z,99443.19
2022-11-17T20:52:44.086Z,99446.00
2022-11-17T20:55:10.496Z,99451.25
2022-11-17T20:57:36.858Z,99449.59
2022-11-17T21:00:03.777Z,99462.59
2022-11-17T21:02:30.136Z,99456.53
2022-11-17T21:04:56.540Z,99458.78
2022-11-17T21:07:22.980Z,99469.63
2022-11-17T21:09:49.379Z,99467.34
2022-11-17T21:12:15.751Z,99469.94
2022-11-17T21:14:42.062Z,99476.84
2022-11-17T21:17:28.439Z,99478.47
2022-11-17T21:19:54.771Z,99485.72
2022-11-17T21:22:21.093Z,99485.66
2022-11-17T21:24:47.400Z,99486.78
2022-11-17T21:27:14.846Z,99487.63
2022-11-17T21:29:41.232Z,99492.56
2022-11-17T21:32:07.868Z,99490.25
2022-11-17T21:34:34.289Z,99487.63
2022-11-17T21:37:00.641Z,99491.00
2022-11-17T21:39:27.019Z,99496.78
2022-11-17T21:41:53.399Z,99493.19
2022-11-17T21:44:19.847Z,99491.00
2022-11-17T21:46:46.217Z,99493.50
2022-11-17T21:49:12.612Z,99505.00
2022-11-17T21:51:39.085Z,99498.38
2022-11-17T21:54:08.256Z,99502.59
2022-11-17T21:56:35.977Z,99508.84
2022-11-17T21:59:05.501Z,99516.22
2022-11-17T22:01:32.905Z,99528.03
2022-11-17T22:03:59.474Z,99519.75
2022-11-17T22:06:26.371Z,99528.13
2022-11-17T22:08:54.675Z,99533.69
2022-11-17T22:11:36.514Z,99535.66
2022-11-17T22:14:21.980Z,99543.69
2022-11-17T22:16:53.706Z,99544.78
2022-11-17T22:19:22.389Z,99533.25
2022-11-17T22:21:51.143Z,99541.78
2022-11-17T22:24:17.959Z,99551.41
2022-11-17T22:26:45.399Z,99552.00
2022-11-17T22:29:15.417Z,99548.03
2022-11-17T22:31:42.468Z,99550.00
2022-11-17T22:34:08.800Z,99557.56
2022-11-17T22:36:35.138Z,99551.25
2022-11-17T22:39:01.566Z,99566.81
2022-11-17T22:41:27.944Z,99573.88
2022-11-17T22:43:56.552Z,99578.13
2022-11-17T22:46:25.894Z,99575.81
2022-11-17T22:48:52.946Z,99569.53
2022-11-17T22:51:38.523Z,99590.91
2022-11-17T22:54:06.522Z,99581.38
2022-11-17T22:56:33.792Z,99600.28
2022-11-17T22:59:00.959Z,99598.81
2022-11-17T23:01:27.608Z,99597.72
2022-11-17T23:03:54.050Z,99604.63
2022-11-17T23:06:22.468Z,99606.84
2022-11-17T23:08:48.864Z,99611.53
2022-11-17T23:11:36.179Z,99616.53
2022-11-17T23:14:01.698Z,99617.09
2022-11-17T23:16:28.166Z,99614.56
2022-11-17T23:18:56.884Z,99618.66
2022-11-17T23:21:23.984Z,99620.06
2022-11-17T23:23:50.734Z,99621.31
2022-11-17T23:26:17.524Z,99624.34
2022-11-17T23:28:43.950Z,99624.03
2022-11-17T23:31:12.996Z,99629.72
2022-11-17T23:33:41.661Z,99630.59
2022-11-17T23:36:16.670Z,99634.88
2022-11-17T23:38:43.279Z,99637.66
2022-11-17T23:41:12.951Z,99647.06
2022-11-17T23:43:39.661Z,99642.69
2022-11-17T23:46:16.126Z,99638.03
2022-11-17T23:48:43.601Z,99655.41
2022-11-17T23:51:15.723Z,99656.78
2022-11-17T23:53:42.460Z,99661.75
2022-11-17T23:56:10.104Z,99656.50
2022-11-17T23:58:36.655Z,99658.16
